EDDM

Munich International Airport

ICAO Code EDDM
IATA Code MUC
Name Munich International Airport
Location Munich, Bavaria, DE
Elevation 1487 Feet / 453.2 Meters
Latitude 48.35380173
Longitude 11.78610039
METAR EDDM 240520Z 09002KT 3000 0500NE R08L/0700U R08R/1900N BCFG NSC M05/M05 Q1032 NOSIG
Extra information Display Charts and CFS
Display NOTAMS
Runway Length Width Surface Elevation
08L 13123 ft 197 ft CON 1467 ft
08R 13123 ft 197 ft CON 1486 ft
26R 13123 ft 197 ft CON 1449 ft
26L 13123 ft 197 ft CON 1470 ft